Time;durP1;ratioP1;P1;durP2;ratioP2;P2;SDS_P1;SDS_P2;PMS_P1;PMS_P2;Temp;Humidity;BMP_temperature;BMP_pressure;BME280_temperature;BME280_humidity;BME280_pressure;Samples;Min_cycle;Max_cycle;Signal;HPM_P1;HPM_P2
2024/01/09 00:00:09;;;;;;;17.92;14.75;;;1.60;99.90;;;;;;5092708;28;20036;-79
2024/01/09 00:02:34;;;;;;;21.23;17.13;;;1.60;99.90;;;;;;5092322;28;20390;-79
2024/01/09 00:05:00;;;;;;;21.20;18.08;;;1.60;99.90;;;;;;5092186;28;20032;-79
2024/01/09 00:07:26;;;;;;;25.25;18.65;;;1.60;99.90;;;;;;5092073;28;20108;-79
2024/01/09 00:09:51;;;;;;;25.08;18.73;;;1.50;99.90;;;;;;5092494;28;20482;-79
2024/01/09 00:12:17;;;;;;;25.30;19.27;;;1.60;99.90;;;;;;5092376;28;20111;-79
2024/01/09 00:14:43;;;;;;;24.75;20.65;;;1.60;99.90;;;;;;5092322;28;20039;-79
2024/01/09 00:17:09;;;;;;;24.30;20.23;;;1.50;99.90;;;;;;5093018;28;20024;-80
2024/01/09 00:19:35;;;;;;;21.90;16.17;;;1.80;99.90;;;;;;5092492;28;20047;-80
2024/01/09 00:22:02;;;;;;;24.05;20.30;;;2.10;99.90;;;;;;5092162;28;20024;-80
2024/01/09 00:24:28;;;;;;;28.33;25.30;;;2.20;99.90;;;;;;5092884;28;20036;-80
2024/01/09 00:26:55;;;;;;;36.05;28.88;;;2.40;99.90;;;;;;5092678;28;20060;-80
2024/01/09 00:29:20;;;;;;;29.48;24.23;;;2.40;99.90;;;;;;5092336;28;20052;-80
2024/01/09 00:31:46;;;;;;;28.67;22.73;;;2.40;99.90;;;;;;5093475;28;20057;-80
2024/01/09 00:34:11;;;;;;;33.25;24.92;;;2.40;99.90;;;;;;5096021;28;20472;-80
2024/01/09 00:36:44;;;;;;;40.40;29.63;;;2.20;99.90;;;;;;5096094;28;20041;-80
2024/01/09 00:39:11;;;;;;;37.58;27.80;;;2.00;99.90;;;;;;5095041;28;20032;-80
2024/01/09 00:41:37;;;;;;;30.42;22.95;;;1.80;99.90;;;;;;5096384;28;20107;-80
2024/01/09 00:44:02;;;;;;;40.05;29.35;;;1.70;99.90;;;;;;5096855;28;20066;-80
2024/01/09 00:46:28;;;;;;;38.67;27.80;;;1.60;99.90;;;;;;5097578;28;20036;-80
2024/01/09 00:48:54;;;;;;;42.08;26.55;;;1.50;99.90;;;;;;5096245;28;20027;-80
2024/01/09 00:51:20;;;;;;;34.88;23.05;;;1.50;99.90;;;;;;5095915;28;20028;-79
2024/01/09 00:53:45;;;;;;;26.00;19.48;;;1.40;99.90;;;;;;5096186;28;20090;-79
2024/01/09 00:56:11;;;;;;;34.15;24.17;;;1.40;99.90;;;;;;5096817;28;20064;-80
2024/01/09 00:58:37;;;;;;;53.33;28.88;;;1.30;99.90;;;;;;5096243;28;20028;-81
2024/01/09 01:01:03;;;;;;;34.38;22.30;;;1.20;99.90;;;;;;5096383;28;20020;-80
2024/01/09 01:03:29;;;;;;;55.10;28.73;;;1.20;99.90;;;;;;5096551;28;20445;-80
2024/01/09 01:05:55;;;;;;;53.42;29.00;;;1.10;99.90;;;;;;5096546;28;20048;-79
2024/01/09 01:08:21;;;;;;;46.67;25.02;;;1.10;99.90;;;;;;5097204;28;20092;-80
2024/01/09 01:10:48;;;;;;;47.55;27.65;;;1.10;99.90;;;;;;5096187;28;20111;-79
2024/01/09 01:13:13;;;;;;;113.20;50.40;;;1.10;99.90;;;;;;5096618;28;20032;-78
2024/01/09 01:15:39;;;;;;;93.28;44.40;;;1.00;99.90;;;;;;5095175;28;20447;-78
2024/01/09 01:18:05;;;;;;;83.07;39.95;;;1.00;99.90;;;;;;5096210;28;20039;-78
2024/01/09 01:20:30;;;;;;;80.15;40.83;;;0.90;99.90;;;;;;5095707;28;20077;-79
2024/01/09 01:22:56;;;;;;;54.78;28.48;;;0.80;99.90;;;;;;5096411;28;20139;-78
2024/01/09 01:25:22;;;;;;;61.67;32.45;;;0.80;99.90;;;;;;5096597;28;20520;-78
2024/01/09 01:27:47;;;;;;;53.58;29.85;;;0.80;99.90;;;;;;5096700;28;20020;-78
2024/01/09 01:30:13;;;;;;;51.00;29.80;;;0.80;99.90;;;;;;5097093;28;20509;-78
2024/01/09 01:32:39;;;;;;;73.28;42.55;;;0.80;99.90;;;;;;5095571;28;20035;-78
2024/01/09 01:35:05;;;;;;;62.10;36.90;;;0.80;99.90;;;;;;5097332;28;20032;-78
2024/01/09 01:37:31;;;;;;;79.32;44.30;;;0.70;99.90;;;;;;5096464;28;20377;-79
2024/01/09 01:39:56;;;;;;;75.78;42.78;;;0.70;99.90;;;;;;5096932;28;20035;-79
2024/01/09 01:42:22;;;;;;;102.97;51.75;;;0.60;99.90;;;;;;5078456;28;20039;-79
2024/01/09 01:44:48;;;;;;;64.18;34.92;;;0.60;99.90;;;;;;5075180;28;20031;-80
2024/01/09 01:47:14;;;;;;;62.03;35.88;;;0.70;99.90;;;;;;5075088;28;20047;-80
2024/01/09 01:49:40;;;;;;;62.15;36.78;;;0.70;99.90;;;;;;5074420;28;20502;-81
2024/01/09 01:52:07;;;;;;;48.75;29.25;;;0.60;99.90;;;;;;5075171;28;20031;-80
2024/01/09 01:54:35;;;;;;;54.35;33.53;;;0.70;99.90;;;;;;5074470;28;20032;-81
2024/01/09 01:57:02;;;;;;;55.17;31.58;;;0.70;99.90;;;;;;5074540;28;20048;-81
2024/01/09 01:59:30;;;;;;;51.90;31.67;;;0.80;99.90;;;;;;5074771;28;20027;-81
2024/01/09 02:01:56;;;;;;;37.97;24.08;;;0.80;99.90;;;;;;5074280;28;20031;-81
2024/01/09 02:04:23;;;;;;;68.82;40.67;;;0.80;99.90;;;;;;5073865;28;20550;-80
2024/01/09 02:06:48;;;;;;;63.25;35.95;;;0.80;99.90;;;;;;5074403;28;20020;-80
2024/01/09 02:09:17;;;;;;;44.03;28.50;;;0.80;99.90;;;;;;5074128;28;20024;-80
2024/01/09 02:11:43;;;;;;;37.35;23.83;;;0.80;99.90;;;;;;5074674;28;20028;-79
2024/01/09 02:14:08;;;;;;;52.10;31.92;;;0.70;99.90;;;;;;5074144;28;20517;-79
2024/01/09 02:16:34;;;;;;;42.78;27.73;;;0.70;99.90;;;;;;5074049;28;20025;-78
2024/01/09 02:19:00;;;;;;;40.28;26.13;;;0.70;99.90;;;;;;5073427;28;20025;-78
2024/01/09 02:21:25;;;;;;;45.50;30.38;;;0.70;99.90;;;;;;5074336;28;20024;-78
2024/01/09 02:23:51;;;;;;;35.55;23.77;;;0.60;99.90;;;;;;5073961;28;20071;-77
2024/01/09 02:26:20;;;;;;;29.65;20.30;;;0.60;99.90;;;;;;5073616;28;20028;-78
2024/01/09 02:28:50;;;;;;;39.10;25.83;;;0.60;99.90;;;;;;5073475;28;20032;-77
2024/01/09 02:31:16;;;;;;;31.95;22.42;;;0.60;99.90;;;;;;5073682;28;20016;-77
2024/01/09 02:33:44;;;;;;;35.42;23.67;;;0.50;99.90;;;;;;5073236;28;20032;-77
2024/01/09 02:36:09;;;;;;;41.55;27.60;;;0.60;99.90;;;;;;5073487;28;20025;-77
2024/01/09 02:38:35;;;;;;;35.83;24.38;;;0.60;99.90;;;;;;5073408;28;20029;-76
2024/01/09 02:41:01;;;;;;;50.03;32.25;;;0.60;99.90;;;;;;5079977;28;20032;-76
2024/01/09 02:43:26;;;;;;;42.38;27.48;;;0.50;99.90;;;;;;5093570;28;20027;-76
2024/01/09 02:45:52;;;;;;;38.90;27.55;;;0.50;99.90;;;;;;5093478;28;20188;-76
2024/01/09 02:48:17;;;;;;;29.35;20.58;;;0.50;99.90;;;;;;5093553;28;20088;-76
2024/01/09 02:50:43;;;;;;;34.60;24.60;;;0.50;99.90;;;;;;5093542;28;20028;-76
2024/01/09 02:53:09;;;;;;;32.10;21.35;;;0.50;99.90;;;;;;5093432;28;20039;-75
2024/01/09 02:55:34;;;;;;;37.33;24.73;;;0.30;99.90;;;;;;5092893;28;20050;-74
2024/01/09 02:58:00;;;;;;;47.33;32.33;;;0.60;99.90;;;;;;5093164;28;20406;-74
2024/01/09 03:00:25;;;;;;;36.97;25.70;;;0.90;99.90;;;;;;5093813;28;20020;-74
2024/01/09 03:02:51;;;;;;;36.55;25.30;;;0.90;99.90;;;;;;5092818;28;20028;-74
2024/01/09 03:05:17;;;;;;;25.85;19.20;;;1.10;99.90;;;;;;5093252;28;20052;-74
2024/01/09 03:07:43;;;;;;;25.77;18.35;;;1.20;99.90;;;;;;5093176;28;20421;-74
2024/01/09 03:10:09;;;;;;;32.60;22.75;;;1.10;99.90;;;;;;5093564;28;20024;-74
2024/01/09 03:12:35;;;;;;;31.10;20.92;;;1.00;99.90;;;;;;5093005;28;20028;-74
2024/01/09 03:15:00;;;;;;;46.30;29.02;;;0.90;99.90;;;;;;5093072;28;20032;-74
2024/01/09 03:17:26;;;;;;;26.23;18.17;;;0.70;99.90;;;;;;5092711;28;20482;-73
2024/01/09 03:19:51;;;;;;;20.80;14.98;;;0.70;99.90;;;;;;5093020;28;20036;-73
2024/01/09 03:22:17;;;;;;;20.48;15.18;;;0.60;99.90;;;;;;5092948;28;20066;-73
2024/01/09 03:24:43;;;;;;;19.77;14.70;;;0.40;99.90;;;;;;5093260;28;20426;-74
2024/01/09 03:27:09;;;;;;;24.63;16.50;;;0.30;99.90;;;;;;5092832;28;20031;-72
2024/01/09 03:29:35;;;;;;;21.63;15.27;;;0.30;99.90;;;;;;5092603;28;20459;-73
2024/01/09 03:32:00;;;;;;;30.38;20.52;;;0.20;99.90;;;;;;5092441;28;20031;-73
2024/01/09 03:34:26;;;;;;;26.55;17.63;;;0.20;99.90;;;;;;5092642;28;20047;-73
2024/01/09 03:36:51;;;;;;;32.90;21.92;;;0.20;99.90;;;;;;5093103;28;20024;-73
2024/01/09 03:39:17;;;;;;;37.75;23.80;;;0.10;99.90;;;;;;5092596;28;20024;-73
2024/01/09 03:41:43;;;;;;;25.90;16.98;;;0.10;99.90;;;;;;5092261;28;20047;-73
2024/01/09 03:44:09;;;;;;;28.05;18.60;;;0.10;99.90;;;;;;5092525;28;20020;-69
2024/01/09 03:46:35;;;;;;;26.70;17.58;;;0.10;99.90;;;;;;5092502;28;20044;-73
2024/01/09 03:49:01;;;;;;;24.48;16.23;;;0.10;99.90;;;;;;5092475;28;20031;-72
2024/01/09 03:51:26;;;;;;;33.70;20.95;;;0.10;99.90;;;;;;5092644;28;20146;-72
2024/01/09 03:53:52;;;;;;;28.08;17.65;;;0.00;99.90;;;;;;5092079;28;20047;-72
2024/01/09 03:56:18;;;;;;;30.30;18.98;;;0.00;99.90;;;;;;5092650;28;20028;-72
2024/01/09 03:58:44;;;;;;;40.10;21.77;;;0.00;99.90;;;;;;5092027;28;20430;-72
2024/01/09 04:01:10;;;;;;;35.15;18.98;;;0.00;99.90;;;;;;5092376;28;20024;-72
2024/01/09 04:03:36;;;;;;;28.25;17.27;;;0.00;99.90;;;;;;5092740;28;20026;-72
2024/01/09 04:06:04;;;;;;;31.02;19.30;;;0.00;99.90;;;;;;5090949;28;20386;-72
2024/01/09 04:08:30;;;;;;;34.67;21.98;;;0.00;99.90;;;;;;5092231;28;20031;-72
2024/01/09 04:10:56;;;;;;;44.83;28.38;;;0.00;99.90;;;;;;5092105;28;20028;-72
2024/01/09 04:13:22;;;;;;;43.63;28.50;;;0.00;99.90;;;;;;5092136;28;20036;-72
2024/01/09 04:15:47;;;;;;;46.47;28.52;;;-0.20;99.90;;;;;;5092127;28;20024;-72
2024/01/09 04:18:13;;;;;;;77.60;41.85;;;-0.20;99.90;;;;;;5091952;28;20031;-72
2024/01/09 04:20:42;;;;;;;58.13;30.92;;;-0.10;99.90;;;;;;5092112;28;20474;-71
2024/01/09 04:23:07;;;;;;;42.72;22.80;;;-0.20;99.90;;;;;;5092173;28;20017;-71
2024/01/09 04:25:33;;;;;;;46.30;28.90;;;-0.20;99.90;;;;;;5091970;28;20036;-71
2024/01/09 04:27:59;;;;;;;41.67;27.45;;;-0.20;99.90;;;;;;5091684;28;20085;-71
2024/01/09 04:30:26;;;;;;;56.17;31.80;;;-0.20;99.90;;;;;;5091951;28;20379;-71
2024/01/09 04:32:52;;;;;;;65.20;36.38;;;-0.10;99.90;;;;;;5091913;28;20081;-71
2024/01/09 04:35:18;;;;;;;49.58;32.10;;;-0.20;99.90;;;;;;5091943;28;20107;-71
2024/01/09 04:37:44;;;;;;;45.42;26.98;;;-0.30;99.90;;;;;;5091885;28;20016;-71
2024/01/09 04:40:10;;;;;;;51.33;30.65;;;-0.30;99.90;;;;;;5092238;28;20028;-71
2024/01/09 04:42:35;;;;;;;125.95;56.25;;;-0.30;99.90;;;;;;5091456;28;20108;-71
2024/01/09 04:45:01;;;;;;;70.70;37.25;;;-0.30;99.90;;;;;;5091686;28;20042;-71
2024/01/09 04:47:27;;;;;;;56.90;34.80;;;-0.30;99.90;;;;;;5091900;28;20110;-71
2024/01/09 04:49:52;;;;;;;65.15;38.70;;;-0.20;99.90;;;;;;5092271;28;20028;-71
2024/01/09 04:52:18;;;;;;;91.45;57.58;;;-0.30;99.90;;;;;;5091711;28;20099;-71
2024/01/09 04:54:44;;;;;;;89.50;54.40;;;-0.30;99.90;;;;;;5091686;28;20410;-71
2024/01/09 04:57:09;;;;;;;79.68;49.08;;;-0.30;99.90;;;;;;5091561;28;20020;-71
2024/01/09 04:59:35;;;;;;;43.80;28.33;;;-0.30;99.90;;;;;;5091743;28;20059;-71
2024/01/09 05:02:02;;;;;;;36.30;22.92;;;-0.30;99.90;;;;;;5092188;28;20260;-71
2024/01/09 05:04:30;;;;;;;52.33;31.73;;;-0.20;99.90;;;;;;5091686;28;20036;-71
2024/01/09 05:06:56;;;;;;;61.75;36.58;;;-0.30;99.90;;;;;;5091649;28;20091;-70
2024/01/09 05:09:23;;;;;;;82.10;47.03;;;-0.40;99.90;;;;;;5091695;28;20103;-70
2024/01/09 05:11:49;;;;;;;83.47;50.92;;;-0.40;99.90;;;;;;5091719;28;20386;-71
2024/01/09 05:14:14;;;;;;;61.85;39.58;;;-0.40;99.90;;;;;;5091594;28;20028;-71
2024/01/09 05:16:40;;;;;;;53.60;34.83;;;-0.40;99.90;;;;;;5091492;28;20020;-72
2024/01/09 05:19:06;;;;;;;43.00;30.02;;;-0.50;99.90;;;;;;5094882;28;20123;-71
2024/01/09 05:21:31;;;;;;;39.65;26.85;;;-0.50;99.90;;;;;;5095605;28;20028;-71
2024/01/09 05:23:57;;;;;;;36.38;24.23;;;-0.50;99.90;;;;;;5095433;28;20406;-71
2024/01/09 05:26:22;;;;;;;25.65;18.55;;;-0.50;99.90;;;;;;5094864;28;20051;-71
2024/01/09 05:28:48;;;;;;;25.63;16.70;;;-0.50;99.90;;;;;;5095006;28;20039;-71
2024/01/09 05:31:14;;;;;;;23.67;17.83;;;-0.60;99.90;;;;;;5095414;28;20027;-71
2024/01/09 05:33:39;;;;;;;28.88;20.80;;;-0.60;99.90;;;;;;5094944;28;20036;-72
2024/01/09 05:36:06;;;;;;;28.85;19.80;;;-0.60;99.90;;;;;;5094943;28;20091;-71
2024/01/09 05:38:32;;;;;;;28.08;18.67;;;-0.50;99.90;;;;;;5095050;28;20028;-72
2024/01/09 05:40:58;;;;;;;23.80;16.58;;;-0.60;99.90;;;;;;5095423;28;20039;-73
2024/01/09 05:43:23;;;;;;;23.05;16.80;;;-0.60;99.90;;;;;;5094428;28;20491;-72
2024/01/09 05:45:49;;;;;;;24.25;16.92;;;-0.60;99.90;;;;;;5095044;28;20042;-72
2024/01/09 05:48:14;;;;;;;22.10;16.48;;;-0.60;99.90;;;;;;5094708;28;20055;-72
2024/01/09 05:50:40;;;;;;;22.65;16.13;;;-0.40;99.90;;;;;;5094619;28;20024;-71
2024/01/09 05:53:07;;;;;;;23.55;16.50;;;-0.20;99.90;;;;;;5094590;28;20070;-71
2024/01/09 05:55:33;;;;;;;28.55;19.08;;;0.10;99.90;;;;;;5094196;28;20438;-72
2024/01/09 05:57:58;;;;;;;23.63;16.83;;;0.00;99.90;;;;;;5094640;28;20047;-72
2024/01/09 06:00:24;;;;;;;26.77;18.55;;;0.10;99.90;;;;;;5094617;28;20483;-72
2024/01/09 06:02:51;;;;;;;54.90;30.88;;;0.10;99.90;;;;;;5094873;28;20035;-72
2024/01/09 06:05:17;;;;;;;50.17;28.23;;;0.00;99.90;;;;;;5094269;28;20073;-72
2024/01/09 06:07:42;;;;;;;40.53;23.67;;;-0.20;99.90;;;;;;5094353;28;20032;-72
2024/01/09 06:10:08;;;;;;;34.60;22.63;;;-0.30;99.90;;;;;;5094418;28;20028;-72
2024/01/09 06:12:34;;;;;;;27.90;19.65;;;-0.40;99.90;;;;;;5094290;28;20024;-72
2024/01/09 06:14:59;;;;;;;25.25;17.92;;;-0.60;99.90;;;;;;5094324;28;20039;-73
2024/01/09 06:17:25;;;;;;;27.63;19.20;;;-0.60;99.90;;;;;;5094123;28;20024;-72
2024/01/09 06:19:51;;;;;;;24.98;17.65;;;-0.70;99.90;;;;;;5094135;28;20035;-72
2024/01/09 06:22:16;;;;;;;22.85;15.32;;;-0.60;99.90;;;;;;5094017;28;20549;-72
2024/01/09 06:24:42;;;;;;;20.63;15.38;;;-0.70;99.90;;;;;;5094036;28;20020;-72
2024/01/09 06:27:07;;;;;;;23.98;16.52;;;-0.70;99.90;;;;;;5093857;28;20032;-72
2024/01/09 06:29:33;;;;;;;27.55;18.23;;;-0.70;99.90;;;;;;5092903;28;20044;-72
2024/01/09 06:31:59;;;;;;;46.10;23.42;;;-0.80;99.90;;;;;;5093913;28;20053;-72
2024/01/09 06:34:24;;;;;;;53.33;27.25;;;-0.80;99.90;;;;;;5093617;28;20024;-72
2024/01/09 06:36:50;;;;;;;63.63;32.80;;;-0.80;99.90;;;;;;5094291;28;20529;-73
2024/01/09 06:39:16;;;;;;;62.53;33.13;;;-0.90;99.90;;;;;;5093443;28;20345;-72
2024/01/09 06:41:42;;;;;;;35.92;22.00;;;-0.90;99.90;;;;;;5093380;28;20047;-72
2024/01/09 06:44:08;;;;;;;27.40;18.20;;;-0.90;99.90;;;;;;5093681;28;20020;-72
2024/01/09 06:46:33;;;;;;;88.85;41.17;;;-0.90;99.90;;;;;;5093745;28;20367;-73
2024/01/09 06:48:59;;;;;;;84.97;39.15;;;-1.00;99.90;;;;;;5093430;28;20033;-72
2024/01/09 06:51:25;;;;;;;53.85;28.20;;;-1.00;99.90;;;;;;5093728;28;20458;-73
2024/01/09 06:53:51;;;;;;;44.97;24.50;;;-1.00;99.90;;;;;;5093257;28;20036;-72
2024/01/09 06:56:17;;;;;;;49.67;29.00;;;-1.00;99.90;;;;;;5093382;28;20074;-73
2024/01/09 06:58:45;;;;;;;41.92;25.42;;;-1.00;99.90;;;;;;5093324;28;20103;-72
2024/01/09 07:01:11;;;;;;;32.95;20.63;;;-1.10;99.90;;;;;;5093387;28;20458;-72
2024/01/09 07:03:36;;;;;;;25.40;17.50;;;-1.10;99.90;;;;;;5093627;28;20044;-72
2024/01/09 07:06:02;;;;;;;30.63;18.60;;;-1.10;99.90;;;;;;5093133;28;20090;-72
2024/01/09 07:08:28;;;;;;;27.27;19.88;;;-1.00;99.90;;;;;;5092954;28;20382;-72
2024/01/09 07:10:54;;;;;;;19.90;14.30;;;-1.10;99.90;;;;;;5093179;28;20028;-72
2024/01/09 07:13:20;;;;;;;21.77;14.52;;;-1.00;99.90;;;;;;5093235;28;20063;-72
2024/01/09 07:15:45;;;;;;;28.08;16.83;;;-1.00;99.90;;;;;;5093144;28;20062;-72
2024/01/09 07:18:11;;;;;;;20.58;13.68;;;-1.00;99.90;;;;;;5092889;28;20028;-72
2024/01/09 07:20:37;;;;;;;21.80;15.95;;;-0.90;99.90;;;;;;5093398;28;20553;-72
2024/01/09 07:23:03;;;;;;;18.63;14.43;;;-1.00;99.90;;;;;;5092675;28;20056;-72
2024/01/09 07:25:28;;;;;;;20.45;14.65;;;-1.00;99.90;;;;;;5092978;28;20050;-73
2024/01/09 07:27:54;;;;;;;17.60;13.98;;;-1.00;99.90;;;;;;5092896;28;20392;-72
2024/01/09 07:30:20;;;;;;;20.90;14.85;;;-1.00;99.90;;;;;;5093150;28;20446;-72
2024/01/09 07:32:45;;;;;;;22.35;14.55;;;-1.00;99.90;;;;;;5092730;28;20110;-72
2024/01/09 07:35:11;;;;;;;53.80;24.05;;;-1.00;99.90;;;;;;5092871;28;20028;-72
2024/01/09 07:37:37;;;;;;;67.55;29.50;;;-1.00;99.90;;;;;;5092237;28;20047;-72
2024/01/09 07:40:04;;;;;;;137.40;54.70;;;-1.00;99.90;;;;;;5092539;28;20024;-71
2024/01/09 07:42:30;;;;;;;96.95;41.58;;;-1.00;99.90;;;;;;5092526;28;20031;-72
2024/01/09 07:44:56;;;;;;;69.32;32.25;;;-1.00;99.90;;;;;;5091155;28;20670;-73
2024/01/09 07:47:22;;;;;;;66.07;31.85;;;-1.00;99.90;;;;;;5092357;28;20035;-72
2024/01/09 07:49:47;;;;;;;173.18;76.07;;;-1.00;99.90;;;;;;5093017;28;20016;-72
2024/01/09 07:52:13;;;;;;;178.73;83.82;;;-1.10;99.90;;;;;;5092211;28;20165;-72
2024/01/09 07:54:41;;;;;;;109.70;54.33;;;-1.10;99.90;;;;;;5091072;28;20032;-72
2024/01/09 07:57:07;;;;;;;78.88;41.20;;;-1.10;99.90;;;;;;5092512;28;20024;-72
2024/01/09 07:59:33;;;;;;;57.83;30.95;;;-1.10;99.90;;;;;;5092438;28;20032;-72
2024/01/09 08:02:00;;;;;;;76.25;42.95;;;-1.00;99.90;;;;;;5092268;28;20484;-72
2024/01/09 08:04:26;;;;;;;69.10;42.28;;;-1.00;99.90;;;;;;5092512;28;20357;-72
2024/01/09 08:06:52;;;;;;;61.55;39.85;;;-1.00;99.90;;;;;;5091840;28;20038;-72
2024/01/09 08:09:18;;;;;;;59.20;39.28;;;-1.00;99.90;;;;;;5092602;28;20028;-72
2024/01/09 08:11:47;;;;;;;42.88;27.80;;;-1.00;99.90;;;;;;5092230;28;20032;-72
2024/01/09 08:14:13;;;;;;;40.53;26.83;;;-1.00;99.90;;;;;;5092110;28;20439;-72
2024/01/09 08:16:40;;;;;;;53.42;37.10;;;-1.00;99.90;;;;;;5092103;28;20028;-72
2024/01/09 08:19:09;;;;;;;56.40;39.38;;;-1.00;99.90;;;;;;5092193;28;20039;-72
2024/01/09 08:21:35;;;;;;;44.67;32.20;;;-1.00;99.90;;;;;;5091735;28;20032;-72
2024/01/09 08:24:02;;;;;;;26.73;18.98;;;-0.90;99.90;;;;;;5092511;28;20034;-72
2024/01/09 08:26:28;;;;;;;21.63;16.25;;;-0.90;99.90;;;;;;5092200;28;20035;-72
2024/01/09 08:28:54;;;;;;;30.80;23.48;;;-0.80;99.90;;;;;;5091953;28;20028;-72
2024/01/09 08:31:19;;;;;;;38.25;28.33;;;-0.80;99.90;;;;;;5092266;28;20107;-72
2024/01/09 08:33:45;;;;;;;25.30;19.85;;;-0.80;99.90;;;;;;5092040;28;20494;-72
2024/01/09 08:36:11;;;;;;;21.27;15.82;;;-0.70;99.90;;;;;;5091668;28;20032;-72
2024/01/09 08:38:37;;;;;;;28.75;19.98;;;-0.70;99.90;;;;;;5091961;28;20016;-72
2024/01/09 08:41:04;;;;;;;28.35;21.75;;;-0.70;99.90;;;;;;5091692;28;20038;-72
2024/01/09 08:43:30;;;;;;;26.83;20.92;;;-0.70;99.90;;;;;;5091915;28;20029;-72
2024/01/09 08:45:55;;;;;;;28.05;21.05;;;-0.70;99.90;;;;;;5091675;28;20063;-72
2024/01/09 08:48:21;;;;;;;27.40;20.00;;;-0.70;99.90;;;;;;5092209;28;20103;-72
2024/01/09 08:50:48;;;;;;;19.45;14.88;;;-0.60;99.90;;;;;;5091814;28;20024;-72
2024/01/09 08:53:14;;;;;;;22.85;15.63;;;-0.30;99.90;;;;;;5094061;28;20401;-71
2024/01/09 08:55:39;;;;;;;20.92;15.23;;;0.00;99.90;;;;;;5095707;28;20024;-72
2024/01/09 08:58:05;;;;;;;15.30;12.05;;;0.20;99.90;;;;;;5095724;28;20470;-71
2024/01/09 09:00:32;;;;;;;16.35;11.95;;;0.30;99.90;;;;;;5095641;28;20047;-72
2024/01/09 09:02:59;;;;;;;16.23;11.77;;;0.50;99.90;;;;;;5095976;28;20020;-72
2024/01/09 09:05:25;;;;;;;15.63;11.80;;;0.60;99.90;;;;;;5095300;28;20135;-72
2024/01/09 09:07:50;;;;;;;13.82;10.52;;;0.60;99.90;;;;;;5095550;28;20485;-72
2024/01/09 09:10:17;;;;;;;15.18;11.20;;;0.50;99.90;;;;;;5095842;28;20506;-72
2024/01/09 09:12:42;;;;;;;14.27;10.88;;;0.30;99.90;;;;;;5095462;28;20036;-73
2024/01/09 09:15:08;;;;;;;13.27;11.00;;;0.30;99.90;;;;;;5095443;28;20111;-72
2024/01/09 09:17:34;;;;;;;13.80;11.10;;;0.20;99.90;;;;;;5095670;28;20024;-72
2024/01/09 09:20:00;;;;;;;15.23;11.75;;;0.30;99.90;;;;;;5095006;28;20107;-72
2024/01/09 09:22:28;;;;;;;15.40;12.20;;;0.20;99.90;;;;;;5095390;28;20028;-73
2024/01/09 09:24:55;;;;;;;17.00;12.43;;;0.20;99.90;;;;;;5094925;28;20036;-72
2024/01/09 09:27:21;;;;;;;17.23;12.48;;;0.20;99.90;;;;;;5095607;28;20039;-73
2024/01/09 09:29:46;;;;;;;16.63;13.10;;;0.30;99.90;;;;;;5095040;28;20028;-72
2024/01/09 09:32:12;;;;;;;15.40;12.20;;;0.30;99.90;;;;;;5094756;28;20077;-72
2024/01/09 09:34:40;;;;;;;17.08;12.57;;;0.30;99.90;;;;;;5095243;28;20036;-73
2024/01/09 09:37:06;;;;;;;15.48;12.32;;;0.30;99.90;;;;;;5095017;28;20039;-72
2024/01/09 09:39:31;;;;;;;14.48;12.65;;;0.40;99.90;;;;;;5095095;28;20039;-72
2024/01/09 09:41:57;;;;;;;15.98;13.63;;;0.40;99.90;;;;;;5095105;28;20474;-72
2024/01/09 09:44:25;;;;;;;15.05;13.45;;;0.40;99.90;;;;;;5094911;28;20393;-73
2024/01/09 09:46:51;;;;;;;17.38;13.48;;;0.40;99.90;;;;;;5094270;28;20059;-73
2024/01/09 09:49:24;;;;;;;18.17;13.65;;;0.50;99.90;;;;;;5094811;28;20028;-73
2024/01/09 09:51:51;;;;;;;15.88;12.73;;;0.50;99.90;;;;;;5094644;28;20605;-72
2024/01/09 09:54:18;;;;;;;16.20;13.27;;;0.60;99.90;;;;;;5094910;28;20044;-72
2024/01/09 09:56:45;;;;;;;17.25;13.52;;;0.60;99.90;;;;;;5094701;28;20038;-73
2024/01/09 09:59:11;;;;;;;15.02;12.77;;;0.60;99.90;;;;;;5094801;28;20059;-73
2024/01/09 10:01:38;;;;;;;16.50;12.73;;;0.70;99.90;;;;;;5094172;28;20561;-73
2024/01/09 10:04:13;;;;;;;16.98;13.07;;;0.70;99.90;;;;;;5093503;28;20055;-73
2024/01/09 10:06:44;;;;;;;17.40;13.50;;;0.80;99.90;;;;;;5094339;28;20443;-73
2024/01/09 10:09:14;;;;;;;14.77;12.07;;;0.80;99.90;;;;;;5094451;28;20566;-73
2024/01/09 10:11:40;;;;;;;16.92;12.60;;;0.90;99.90;;;;;;5094165;28;20448;-73
2024/01/09 10:14:10;;;;;;;14.20;12.38;;;0.90;99.90;;;;;;5094596;28;20032;-74
2024/01/09 10:16:53;;;;;;;14.20;11.57;;;1.00;99.90;;;;;;5094150;28;20024;-74
2024/01/09 10:19:22;;;;;;;15.32;12.77;;;1.00;99.90;;;;;;5094083;28;20556;-74
2024/01/09 10:21:48;;;;;;;15.32;12.10;;;1.10;99.90;;;;;;5094401;28;20039;-74
2024/01/09 10:24:15;;;;;;;15.80;11.63;;;1.10;99.90;;;;;;5094052;28;20028;-74
2024/01/09 10:26:41;;;;;;;13.73;11.55;;;1.10;99.90;;;;;;5093884;28;20550;-75
2024/01/09 10:29:11;;;;;;;12.85;11.25;;;1.20;99.90;;;;;;5094475;28;20020;-74
2024/01/09 10:31:40;;;;;;;18.58;11.95;;;1.30;99.90;;;;;;5093575;28;20031;-75
2024/01/09 10:34:06;;;;;;;17.10;12.18;;;1.30;99.90;;;;;;5094060;28;20040;-75
2024/01/09 10:36:32;;;;;;;15.70;11.38;;;1.40;99.90;;;;;;5094624;28;20024;-76
2024/01/09 10:39:05;;;;;;;16.08;11.65;;;1.50;99.90;;;;;;5093901;28;20563;-77
2024/01/09 10:41:31;;;;;;;13.52;11.18;;;1.50;99.90;;;;;;5093515;28;20051;-77
2024/01/09 10:43:59;;;;;;;11.75;10.43;;;1.50;99.90;;;;;;5093724;28;20639;-77
2024/01/09 10:46:26;;;;;;;13.50;10.90;;;1.60;99.90;;;;;;5093554;28;20051;-77
2024/01/09 10:48:53;;;;;;;12.73;10.57;;;1.70;99.90;;;;;;5093416;28;20520;-77
2024/01/09 10:51:20;;;;;;;13.90;10.85;;;1.70;99.90;;;;;;5093850;28;20381;-77
2024/01/09 10:53:48;;;;;;;13.73;10.30;;;1.80;99.90;;;;;;5093960;28;20040;-77
2024/01/09 10:56:17;;;;;;;12.52;10.02;;;1.80;99.90;;;;;;5093475;28;20020;-76
2024/01/09 10:58:48;;;;;;;12.32;10.70;;;1.90;99.90;;;;;;5093343;28;20563;-76
2024/01/09 11:01:15;;;;;;;13.70;10.63;;;1.90;99.90;;;;;;5093590;28;20120;-76
2024/01/09 11:03:41;;;;;;;12.15;10.38;;;1.90;99.90;;;;;;5093527;28;20455;-76
2024/01/09 11:06:09;;;;;;;21.42;13.85;;;2.00;99.90;;;;;;5093253;28;20132;-76
2024/01/09 11:08:35;;;;;;;23.17;15.07;;;2.00;99.90;;;;;;5093602;28;20452;-77
2024/01/09 11:11:08;;;;;;;25.08;22.38;;;2.10;99.90;;;;;;5093134;28;20449;-77
2024/01/09 11:13:39;;;;;;;28.85;25.73;;;2.10;99.90;;;;;;5093394;28;20464;-78
2024/01/09 11:16:07;;;;;;;26.20;22.52;;;2.10;99.90;;;;;;5092765;28;20070;-77
2024/01/09 11:18:34;;;;;;;21.40;18.42;;;2.20;99.90;;;;;;5093026;28;20115;-78
2024/01/09 11:21:04;;;;;;;20.63;16.55;;;2.20;99.90;;;;;;5093442;28;20505;-77
2024/01/09 11:24:00;;;;;;;16.75;13.63;;;2.30;99.90;;;;;;5093103;28;20430;-77
2024/01/09 11:26:32;;;;;;;16.27;13.38;;;2.30;99.90;;;;;;5093137;28;20055;-77
2024/01/09 11:28:59;;;;;;;15.93;13.60;;;2.40;99.90;;;;;;5092726;28;20270;-78
2024/01/09 11:31:27;;;;;;;20.63;13.23;;;2.50;99.90;;;;;;5092812;28;20263;-78
2024/01/09 11:33:55;;;;;;;19.70;13.23;;;2.50;99.90;;;;;;5092910;28;20097;-77
2024/01/09 11:36:23;;;;;;;26.90;15.02;;;2.60;99.90;;;;;;5093054;28;20020;-78
2024/01/09 11:38:52;;;;;;;22.08;12.77;;;2.80;99.90;;;;;;5093891;28;20013;-78
2024/01/09 11:41:17;;;;;;;24.52;12.88;;;3.10;99.90;;;;;;5092883;28;20023;-78
2024/01/09 11:44:03;;;;;;;22.85;13.18;;;3.20;99.90;;;;;;5091182;28;20032;-78
2024/01/09 11:46:34;;;;;;;23.23;12.85;;;3.40;99.90;;;;;;5092576;28;20044;-77
2024/01/09 11:49:00;;;;;;;18.67;12.82;;;3.60;99.90;;;;;;5093059;28;20023;-77
2024/01/09 11:51:26;;;;;;;20.92;12.85;;;3.70;99.90;;;;;;5093130;28;20487;-78
2024/01/09 11:53:52;;;;;;;20.55;14.48;;;3.60;99.90;;;;;;5094786;28;20023;-78
2024/01/09 11:56:19;;;;;;;20.77;17.85;;;3.50;99.90;;;;;;5096664;28;20182;-77
2024/01/09 11:58:47;;;;;;;20.58;18.05;;;3.50;99.90;;;;;;5092312;28;20090;-78
2024/01/09 12:01:13;;;;;;;14.75;13.18;;;3.40;99.90;;;;;;5092434;28;20025;-77
2024/01/09 12:03:38;;;;;;;14.20;12.70;;;3.40;99.90;;;;;;5092363;28;20035;-77
2024/01/09 12:06:05;;;;;;;14.52;11.43;;;3.30;99.90;;;;;;5092360;28;20035;-77
2024/01/09 12:08:33;;;;;;;14.27;11.90;;;3.40;99.90;;;;;;5092324;28;20024;-76
2024/01/09 12:11:00;;;;;;;12.40;10.30;;;3.30;99.90;;;;;;5092229;28;20417;-76
2024/01/09 12:13:26;;;;;;;11.77;10.40;;;3.40;99.90;;;;;;5092277;28;20432;-75
2024/01/09 12:15:52;;;;;;;13.27;11.75;;;3.40;99.90;;;;;;5092320;28;20012;-74
2024/01/09 12:18:17;;;;;;;17.90;14.55;;;3.50;99.90;;;;;;5092034;28;20520;-74
2024/01/09 12:20:43;;;;;;;18.13;15.25;;;3.50;99.90;;;;;;5092209;28;20163;-73
2024/01/09 12:23:09;;;;;;;14.23;12.35;;;3.50;99.90;;;;;;5092155;28;20028;-73
2024/01/09 12:25:35;;;;;;;13.68;11.90;;;3.60;99.90;;;;;;5092523;28;20025;-73
2024/01/09 12:28:02;;;;;;;14.15;12.18;;;3.60;99.90;;;;;;5093777;28;20078;-72